Time;durP1;ratioP1;P1;durP2;ratioP2;P2;SDS_P1;SDS_P2;PMS_P1;PMS_P2;Temp;Humidity;BMP_temperature;BMP_pressure;BME280_temperature;BME280_humidity;BME280_pressure;Samples;Min_cycle;Max_cycle;Signal;HPM_P1;HPM_P2
2022/08/02 00:01:22;;;;;;;1.63;1.40;;;;;;;;;;4529336;28;20036;-58
2022/08/02 00:03:32;;;;;;;1.88;1.40;;;;;;;;;;4546642;28;20041;-58
2022/08/02 00:05:43;;;;;;;1.70;1.60;;;;;;;;;;4546804;28;20083;-59
2022/08/02 00:07:53;;;;;;;1.50;1.40;;;;;;;;;;4545552;28;20095;-58
2022/08/02 00:10:05;;;;;;;1.23;1.00;;;;;;;;;;4546968;28;20076;-58
2022/08/02 00:12:15;;;;;;;1.70;1.60;;;;;;;;;;4532247;28;20685;-59
2022/08/02 00:14:26;;;;;;;1.70;1.50;;;;;;;;;;4547540;28;20743;-58
2022/08/02 00:16:37;;;;;;;1.73;1.40;;;;;;;;;;4546044;28;20033;-58
2022/08/02 00:18:47;;;;;;;1.05;1.00;;;;;;;;;;4545012;28;20032;-59
2022/08/02 00:20:58;;;;;;;1.58;1.20;;;;;;;;;;4547832;28;20079;-58
2022/08/02 00:23:08;;;;;;;1.50;1.20;;;;;;;;;;4547432;28;20060;-58
2022/08/02 00:25:19;;;;;;;1.20;1.10;;;;;;;;;;4546728;28;20021;-58
2022/08/02 00:27:29;;;;;;;0.80;0.80;;;;;;;;;;4515592;28;20038;-59
2022/08/02 00:29:40;;;;;;;1.20;1.10;;;;;;;;;;4546681;28;20037;-58
2022/08/02 00:31:50;;;;;;;1.88;1.70;;;;;;;;;;4537145;28;20111;-58
2022/08/02 00:34:01;;;;;;;3.13;1.90;;;;;;;;;;4537694;28;20532;-60
2022/08/02 00:36:11;;;;;;;1.40;1.30;;;;;;;;;;4545668;28;20033;-58
2022/08/02 00:38:22;;;;;;;1.30;1.20;;;;;;;;;;4545865;28;20036;-58
2022/08/02 00:40:32;;;;;;;1.30;1.20;;;;;;;;;;4546351;28;20468;-58
2022/08/02 00:42:43;;;;;;;1.30;1.10;;;;;;;;;;4546675;28;20064;-58
2022/08/02 00:44:53;;;;;;;1.58;1.45;;;;;;;;;;4543795;28;20029;-58
2022/08/02 00:47:04;;;;;;;1.15;1.02;;;;;;;;;;4546223;28;20042;-59
2022/08/02 00:49:14;;;;;;;1.73;1.40;;;;;;;;;;4529923;28;20034;-58
2022/08/02 00:51:24;;;;;;;1.60;1.50;;;;;;;;;;4529573;28;20038;-59
2022/08/02 00:53:35;;;;;;;2.30;1.70;;;;;;;;;;4545249;28;20626;-59
2022/08/02 00:55:45;;;;;;;2.03;1.67;;;;;;;;;;4546390;28;20036;-59
2022/08/02 00:57:56;;;;;;;2.28;1.90;;;;;;;;;;4530775;28;20124;-58
2022/08/02 01:00:07;;;;;;;1.80;1.70;;;;;;;;;;4521904;28;20051;-58
2022/08/02 01:02:18;;;;;;;2.25;1.90;;;;;;;;;;4543862;28;20047;-58
2022/08/02 01:04:28;;;;;;;2.20;1.80;;;;;;;;;;4547096;28;20052;-58
2022/08/02 01:06:40;;;;;;;2.03;1.83;;;;;;;;;;4530607;28;20053;-58
2022/08/02 01:08:50;;;;;;;2.10;1.90;;;;;;;;;;4531668;28;20741;-58
2022/08/02 01:11:01;;;;;;;2.20;1.83;;;;;;;;;;4545198;28;20037;-58
2022/08/02 01:13:11;;;;;;;1.88;1.70;;;;;;;;;;4545909;28;20711;-58
2022/08/02 01:15:23;;;;;;;2.28;1.80;;;;;;;;;;4547159;28;20070;-58
2022/08/02 01:17:43;;;;;;;2.47;1.98;;;;;;;;;;4530397;28;21132;-59
2022/08/02 01:20:06;;;;;;;2.05;1.40;;;;;;;;;;4546454;28;20025;-59
2022/08/02 01:22:54;;;;;;;1.45;1.30;;;;;;;;;;4544511;28;20190;-58
2022/08/02 01:25:25;;;;;;;1.60;1.50;;;;;;;;;;4544836;28;20081;-58
2022/08/02 01:27:46;;;;;;;2.13;1.65;;;;;;;;;;4526572;28;20033;-58
2022/08/02 01:29:59;;;;;;;1.50;1.40;;;;;;;;;;4546655;28;20845;-58
2022/08/02 01:32:14;;;;;;;1.98;1.35;;;;;;;;;;4544858;28;20045;-58
2022/08/02 01:34:48;;;;;;;2.38;1.40;;;;;;;;;;4530719;28;20081;-58
2022/08/02 01:37:10;;;;;;;1.60;1.40;;;;;;;;;;4537219;28;20686;-59
2022/08/02 01:39:25;;;;;;;2.17;1.70;;;;;;;;;;4527454;28;20033;-59
2022/08/02 01:41:36;;;;;;;1.40;1.30;;;;;;;;;;4544214;28;20271;-59
2022/08/02 01:43:48;;;;;;;1.55;1.45;;;;;;;;;;4546498;28;20140;-58
2022/08/02 01:46:00;;;;;;;1.52;1.40;;;;;;;;;;4537740;28;20729;-58
2022/08/02 01:48:12;;;;;;;1.17;1.08;;;;;;;;;;4543331;28;20035;-60
2022/08/02 01:50:25;;;;;;;1.15;0.95;;;;;;;;;;4526839;28;20033;-59
2022/08/02 01:52:38;;;;;;;1.40;1.30;;;;;;;;;;4526423;28;20596;-59
2022/08/02 01:54:51;;;;;;;1.30;1.20;;;;;;;;;;4529298;28;20041;-59
2022/08/02 01:57:04;;;;;;;1.02;0.95;;;;;;;;;;4530393;28;20071;-58
2022/08/02 01:59:17;;;;;;;1.65;1.33;;;;;;;;;;4547670;28;20579;-58
2022/08/02 02:01:30;;;;;;;1.27;1.17;;;;;;;;;;4539942;28;20630;-58
2022/08/02 02:03:42;;;;;;;1.15;1.05;;;;;;;;;;4546801;28;20046;-58
2022/08/02 02:05:55;;;;;;;1.10;1.00;;;;;;;;;;4532533;28;21420;-59
2022/08/02 02:08:06;;;;;;;1.30;1.20;;;;;;;;;;4530251;28;20032;-58
2022/08/02 02:10:21;;;;;;;0.93;0.93;;;;;;;;;;4547952;28;20834;-59
2022/08/02 02:12:33;;;;;;;1.17;1.08;;;;;;;;;;4538082;28;20515;-58
2022/08/02 02:14:44;;;;;;;1.75;1.10;;;;;;;;;;4533747;28;20033;-59
2022/08/02 02:16:56;;;;;;;1.20;1.10;;;;;;;;;;4547987;28;20805;-58
2022/08/02 02:19:08;;;;;;;1.20;1.10;;;;;;;;;;4528895;28;20053;-58
2022/08/02 02:21:18;;;;;;;1.48;1.17;;;;;;;;;;4546773;28;20032;-58
2022/08/02 02:23:29;;;;;;;1.10;1.00;;;;;;;;;;4530834;28;20070;-59
2022/08/02 02:25:40;;;;;;;1.00;0.95;;;;;;;;;;4546959;28;20625;-58
2022/08/02 02:27:57;;;;;;;0.90;0.90;;;;;;;;;;4548101;28;20063;-58
2022/08/02 02:30:08;;;;;;;0.93;0.88;;;;;;;;;;4533296;28;20327;-59
2022/08/02 02:32:20;;;;;;;0.90;0.90;;;;;;;;;;4533988;28;20485;-58
2022/08/02 02:34:37;;;;;;;1.10;1.00;;;;;;;;;;4533638;28;20037;-58
2022/08/02 02:36:49;;;;;;;1.30;1.10;;;;;;;;;;4530538;28;20033;-59
2022/08/02 02:39:03;;;;;;;1.15;1.05;;;;;;;;;;4547151;28;20036;-59
2022/08/02 02:41:15;;;;;;;1.35;1.10;;;;;;;;;;4522669;28;20155;-59
2022/08/02 02:43:27;;;;;;;1.02;1.00;;;;;;;;;;4529345;28;20155;-58
2022/08/02 02:45:39;;;;;;;0.80;0.70;;;;;;;;;;4529388;28;20120;-59
2022/08/02 02:47:51;;;;;;;1.25;0.90;;;;;;;;;;4533289;28;20025;-58
2022/08/02 02:50:02;;;;;;;1.50;1.10;;;;;;;;;;4539386;28;20323;-58
2022/08/02 02:52:14;;;;;;;1.10;1.00;;;;;;;;;;4530877;28;20049;-59
2022/08/02 02:54:25;;;;;;;1.63;0.90;;;;;;;;;;4532817;28;20115;-58
2022/08/02 02:56:37;;;;;;;0.80;0.80;;;;;;;;;;4528230;28;20132;-58
2022/08/02 02:58:47;;;;;;;0.93;0.82;;;;;;;;;;4547519;28;20061;-58
2022/08/02 03:03:27;;;;;;;1.23;0.85;;;;;;;;;;4548357;28;20044;-60
2022/08/02 03:05:38;;;;;;;0.75;0.75;;;;;;;;;;4530689;28;20051;-58
2022/08/02 03:07:48;;;;;;;0.70;0.70;;;;;;;;;;4546608;28;20037;-59
2022/08/02 03:09:59;;;;;;;0.70;0.70;;;;;;;;;;4528604;28;20080;-59
2022/08/02 03:12:10;;;;;;;0.85;0.85;;;;;;;;;;4529836;28;20064;-59
2022/08/02 03:14:21;;;;;;;0.80;0.80;;;;;;;;;;4532882;28;20212;-59
2022/08/02 03:16:31;;;;;;;0.90;0.90;;;;;;;;;;4520220;28;20163;-58
2022/08/02 03:18:42;;;;;;;0.80;0.80;;;;;;;;;;4548055;28;20079;-59
2022/08/02 03:20:58;;;;;;;1.20;1.10;;;;;;;;;;4532121;28;20033;-58
2022/08/02 03:23:08;;;;;;;1.10;1.00;;;;;;;;;;4545348;28;20037;-59
2022/08/02 03:25:18;;;;;;;1.00;0.90;;;;;;;;;;4549724;28;20033;-59
2022/08/02 03:27:29;;;;;;;0.98;0.90;;;;;;;;;;4548188;28;20068;-58
2022/08/02 03:29:39;;;;;;;1.15;1.05;;;;;;;;;;4549102;28;20747;-58
2022/08/02 03:31:50;;;;;;;1.30;0.85;;;;;;;;;;4547786;28;20040;-60
2022/08/02 03:34:01;;;;;;;0.93;0.77;;;;;;;;;;4548710;28;20677;-60
2022/08/02 03:36:15;;;;;;;0.80;0.80;;;;;;;;;;4546185;28;20029;-59
2022/08/02 03:38:26;;;;;;;0.82;0.82;;;;;;;;;;4534088;28;20124;-59
2022/08/02 03:40:36;;;;;;;1.13;1.00;;;;;;;;;;4530996;28;20598;-59
2022/08/02 03:42:48;;;;;;;1.25;1.10;;;;;;;;;;4547451;28;20033;-58
2022/08/02 03:45:00;;;;;;;1.00;0.90;;;;;;;;;;4532890;28;20753;-59
2022/08/02 03:47:11;;;;;;;1.02;0.95;;;;;;;;;;4531642;28;20103;-58
2022/08/02 03:49:22;;;;;;;0.75;0.70;;;;;;;;;;4532301;28;20123;-58
2022/08/02 03:51:34;;;;;;;1.00;0.70;;;;;;;;;;4547451;28;20041;-60
2022/08/02 03:53:44;;;;;;;0.50;0.50;;;;;;;;;;4531069;28;21367;-59
2022/08/02 03:55:55;;;;;;;1.30;0.70;;;;;;;;;;4533436;28;20032;-59
2022/08/02 03:58:06;;;;;;;0.60;0.60;;;;;;;;;;4532740;28;20808;-59
2022/08/02 04:00:19;;;;;;;0.88;0.60;;;;;;;;;;4529242;28;20033;-58
2022/08/02 04:02:30;;;;;;;0.55;0.50;;;;;;;;;;4529344;28;20079;-58
2022/08/02 04:04:40;;;;;;;1.10;0.60;;;;;;;;;;4547617;28;20435;-59
2022/08/02 04:06:51;;;;;;;0.60;0.60;;;;;;;;;;4538881;28;20056;-59
2022/08/02 04:09:01;;;;;;;0.70;0.60;;;;;;;;;;4547541;28;20044;-59
2022/08/02 04:11:30;;;;;;;0.60;0.60;;;;;;;;;;4533044;28;20034;-58
2022/08/02 04:13:40;;;;;;;0.60;0.60;;;;;;;;;;4538953;28;20036;-59
2022/08/02 04:15:55;;;;;;;0.52;0.50;;;;;;;;;;4537463;28;20040;-59
2022/08/02 04:18:05;;;;;;;0.50;0.50;;;;;;;;;;4530929;28;20484;-59
2022/08/02 04:20:21;;;;;;;0.50;0.50;;;;;;;;;;4545124;28;20043;-58
2022/08/02 04:22:45;;;;;;;0.60;0.60;;;;;;;;;;4534593;28;20578;-59
2022/08/02 04:24:59;;;;;;;0.43;0.43;;;;;;;;;;4532942;28;20037;-59
2022/08/02 04:27:10;;;;;;;0.50;0.50;;;;;;;;;;4526870;28;20048;-58
2022/08/02 04:29:21;;;;;;;0.65;0.60;;;;;;;;;;4532867;28;20040;-59
2022/08/02 04:31:31;;;;;;;0.55;0.50;;;;;;;;;;4529654;28;20143;-58
2022/08/02 04:33:42;;;;;;;0.50;0.43;;;;;;;;;;4529666;28;20037;-58
2022/08/02 04:35:52;;;;;;;1.02;0.70;;;;;;;;;;4527206;28;20110;-58
2022/08/02 04:38:03;;;;;;;0.60;0.60;;;;;;;;;;4528559;28;20033;-58
2022/08/02 04:40:14;;;;;;;1.25;0.93;;;;;;;;;;4529072;28;20044;-58
2022/08/02 04:42:25;;;;;;;1.20;0.90;;;;;;;;;;4532740;28;20036;-57
2022/08/02 04:44:35;;;;;;;1.13;0.70;;;;;;;;;;4546575;28;20036;-59
2022/08/02 04:46:46;;;;;;;0.70;0.70;;;;;;;;;;4530071;28;20045;-58
2022/08/02 04:48:57;;;;;;;1.35;0.95;;;;;;;;;;4529450;28;20620;-58
2022/08/02 04:51:07;;;;;;;1.27;1.15;;;;;;;;;;4545052;28;20130;-59
2022/08/02 04:53:18;;;;;;;1.30;1.10;;;;;;;;;;4532517;28;20021;-59
2022/08/02 04:55:28;;;;;;;1.17;0.98;;;;;;;;;;4546430;28;20032;-58
2022/08/02 04:57:54;;;;;;;1.00;0.90;;;;;;;;;;4531213;28;20041;-58
2022/08/02 05:00:06;;;;;;;1.00;0.90;;;;;;;;;;4545094;28;20606;-58
2022/08/02 05:02:17;;;;;;;1.00;0.90;;;;;;;;;;4546280;28;20040;-58
2022/08/02 05:04:28;;;;;;;1.20;1.10;;;;;;;;;;4547128;28;20543;-58
2022/08/02 05:06:38;;;;;;;1.00;0.90;;;;;;;;;;4546044;28;20037;-58
2022/08/02 05:08:49;;;;;;;1.20;1.10;;;;;;;;;;4545613;28;20045;-62
2022/08/02 05:10:59;;;;;;;1.23;1.05;;;;;;;;;;4545672;28;20033;-58
2022/08/02 05:13:10;;;;;;;2.08;1.20;;;;;;;;;;4544927;28;20666;-57
2022/08/02 05:15:20;;;;;;;1.40;1.20;;;;;;;;;;4545083;28;20032;-59
2022/08/02 05:17:31;;;;;;;1.27;1.17;;;;;;;;;;4528310;28;20809;-61
2022/08/02 05:19:41;;;;;;;1.40;1.30;;;;;;;;;;4545698;28;20036;-60
2022/08/02 05:21:51;;;;;;;1.40;1.30;;;;;;;;;;4546722;28;20055;-59
2022/08/02 05:24:02;;;;;;;1.40;1.30;;;;;;;;;;4545661;28;20737;-57
2022/08/02 05:26:12;;;;;;;1.38;1.27;;;;;;;;;;4544672;28;20119;-58
2022/08/02 05:28:24;;;;;;;1.60;1.45;;;;;;;;;;4544380;28;20051;-57
2022/08/02 05:30:34;;;;;;;1.65;1.40;;;;;;;;;;4546787;28;20036;-57
2022/08/02 05:32:46;;;;;;;1.63;1.50;;;;;;;;;;4527300;28;20509;-56
2022/08/02 05:34:59;;;;;;;2.30;1.60;;;;;;;;;;4545266;28;20208;-57
2022/08/02 05:37:09;;;;;;;2.05;1.70;;;;;;;;;;4546202;28;20033;-57
2022/08/02 05:39:20;;;;;;;1.98;1.70;;;;;;;;;;4544963;28;20041;-56
2022/08/02 05:41:30;;;;;;;1.75;1.63;;;;;;;;;;4545492;28;20570;-57
2022/08/02 05:43:41;;;;;;;1.50;1.40;;;;;;;;;;4526676;28;20133;-57
2022/08/02 05:45:52;;;;;;;2.00;1.60;;;;;;;;;;4547372;28;20127;-57
2022/08/02 05:48:03;;;;;;;1.52;1.42;;;;;;;;;;4546961;28;20020;-57
2022/08/02 05:50:13;;;;;;;1.98;1.63;;;;;;;;;;4530114;28;20565;-57
2022/08/02 05:52:28;;;;;;;2.28;1.80;;;;;;;;;;4545366;28;20072;-57
2022/08/02 05:54:43;;;;;;;1.52;1.40;;;;;;;;;;4545096;28;20044;-57
2022/08/02 05:57:21;;;;;;;1.83;1.52;;;;;;;;;;4545913;28;21081;-57
2022/08/02 06:00:08;;;;;;;2.78;1.70;;;;;;;;;;4532648;28;20033;-56
2022/08/02 06:02:36;;;;;;;1.92;1.60;;;;;;;;;;4542936;28;20041;-57
2022/08/02 06:04:56;;;;;;;2.00;1.80;;;;;;;;;;4531852;28;20117;-56
2022/08/02 06:07:09;;;;;;;2.13;1.65;;;;;;;;;;4533086;28;20121;-57
2022/08/02 06:09:19;;;;;;;2.03;1.80;;;;;;;;;;4532753;28;20505;-57
2022/08/02 06:11:37;;;;;;;3.00;1.90;;;;;;;;;;4532023;28;20176;-57
2022/08/02 06:13:48;;;;;;;1.98;1.80;;;;;;;;;;4530214;28;20126;-57
2022/08/02 06:15:59;;;;;;;2.20;1.85;;;;;;;;;;4527217;28;20115;-56
2022/08/02 06:18:09;;;;;;;2.28;1.80;;;;;;;;;;4546682;28;20881;-57
2022/08/02 06:20:20;;;;;;;3.33;1.92;;;;;;;;;;4547091;28;20124;-57
2022/08/02 06:22:31;;;;;;;2.15;1.95;;;;;;;;;;4528223;28;20028;-57
2022/08/02 06:24:43;;;;;;;2.30;1.83;;;;;;;;;;4546133;28;20037;-57
2022/08/02 06:26:56;;;;;;;2.00;1.80;;;;;;;;;;4531540;28;20577;-57
2022/08/02 06:29:06;;;;;;;2.13;1.60;;;;;;;;;;4527881;28;20989;-57
2022/08/02 06:31:17;;;;;;;2.00;1.80;;;;;;;;;;4544586;28;20044;-57
2022/08/02 06:33:28;;;;;;;2.08;1.88;;;;;;;;;;4544940;28;20032;-58
2022/08/02 06:36:00;;;;;;;2.15;1.90;;;;;;;;;;4545678;28;20581;-57
2022/08/02 06:38:16;;;;;;;2.20;2.00;;;;;;;;;;4545863;28;20033;-56
2022/08/02 06:40:40;;;;;;;2.65;2.20;;;;;;;;;;4545367;28;20082;-56
2022/08/02 06:42:55;;;;;;;2.88;1.98;;;;;;;;;;4545879;28;20144;-57
2022/08/02 06:45:06;;;;;;;2.00;1.75;;;;;;;;;;4548238;28;20606;-56
2022/08/02 06:47:17;;;;;;;3.00;2.33;;;;;;;;;;4529838;28;20029;-56
2022/08/02 06:49:28;;;;;;;2.55;2.03;;;;;;;;;;4517001;28;20072;-56
2022/08/02 06:51:39;;;;;;;2.90;2.30;;;;;;;;;;4546951;28;20037;-56
2022/08/02 06:53:50;;;;;;;2.65;2.08;;;;;;;;;;4547679;28;24524;-56
2022/08/02 06:56:00;;;;;;;2.30;2.10;;;;;;;;;;4548219;28;20029;-57
2022/08/02 06:58:12;;;;;;;1.80;1.70;;;;;;;;;;4548840;28;20103;-57
2022/08/02 07:00:22;;;;;;;2.53;1.95;;;;;;;;;;4548160;28;21023;-57
2022/08/02 07:02:35;;;;;;;3.00;2.10;;;;;;;;;;4548533;28;20099;-57
2022/08/02 07:04:45;;;;;;;1.95;1.77;;;;;;;;;;4547081;28;20039;-57
2022/08/02 07:06:56;;;;;;;2.20;2.00;;;;;;;;;;4531346;28;20115;-57
2022/08/02 07:09:07;;;;;;;2.20;2.00;;;;;;;;;;4547525;28;20476;-57
2022/08/02 07:11:18;;;;;;;2.42;2.00;;;;;;;;;;4548282;28;20045;-57
2022/08/02 07:13:28;;;;;;;2.40;2.20;;;;;;;;;;4547328;28;20063;-57
2022/08/02 07:15:39;;;;;;;2.85;2.10;;;;;;;;;;4547692;28;20178;-56
2022/08/02 07:17:49;;;;;;;2.58;2.08;;;;;;;;;;4546871;28;20029;-57
2022/08/02 07:20:00;;;;;;;2.47;2.10;;;;;;;;;;4548317;28;20041;-57
2022/08/02 07:22:11;;;;;;;2.15;1.95;;;;;;;;;;4534846;28;20034;-57
2022/08/02 07:24:22;;;;;;;2.25;2.05;;;;;;;;;;4548038;28;20037;-58
2022/08/02 07:26:32;;;;;;;2.55;2.22;;;;;;;;;;4545795;28;20060;-57
2022/08/02 07:28:43;;;;;;;2.75;1.95;;;;;;;;;;4535033;28;20047;-58
2022/08/02 07:30:53;;;;;;;2.70;2.28;;;;;;;;;;4548070;28;20037;-57
2022/08/02 07:33:04;;;;;;;2.58;2.30;;;;;;;;;;4549203;28;20885;-56
2022/08/02 07:35:14;;;;;;;2.45;2.10;;;;;;;;;;4547032;28;20045;-57
2022/08/02 07:37:28;;;;;;;2.60;2.20;;;;;;;;;;4547183;28;20028;-57
2022/08/02 07:39:39;;;;;;;2.40;2.08;;;;;;;;;;4529105;28;21045;-56
2022/08/02 07:41:52;;;;;;;3.05;2.30;;;;;;;;;;4533220;28;20033;-57
2022/08/02 07:44:03;;;;;;;2.55;2.22;;;;;;;;;;4547283;28;20779;-57
2022/08/02 07:46:13;;;;;;;2.65;2.00;;;;;;;;;;4533708;28;20033;-57
2022/08/02 07:48:24;;;;;;;2.50;1.90;;;;;;;;;;4547440;28;20614;-57
2022/08/02 07:50:34;;;;;;;2.15;1.95;;;;;;;;;;4547911;28;20397;-56
2022/08/02 07:52:46;;;;;;;2.20;2.00;;;;;;;;;;4547691;28;20118;-57
2022/08/02 07:54:56;;;;;;;3.33;2.40;;;;;;;;;;4528151;28;20654;-58
2022/08/02 07:57:07;;;;;;;2.55;2.00;;;;;;;;;;4529108;28;20071;-58
2022/08/02 07:59:17;;;;;;;3.60;2.30;;;;;;;;;;4547452;28;20397;-57
2022/08/02 08:01:28;;;;;;;2.55;1.98;;;;;;;;;;4546797;28;20040;-56
2022/08/02 08:03:38;;;;;;;2.65;2.05;;;;;;;;;;4546067;28;20592;-56
2022/08/02 08:05:49;;;;;;;2.38;2.17;;;;;;;;;;4536780;28;20234;-57
2022/08/02 08:07:59;;;;;;;3.50;2.20;;;;;;;;;;4532746;28;20113;-57
2022/08/02 08:10:10;;;;;;;2.95;2.20;;;;;;;;;;4547835;28;20102;-57
2022/08/02 08:12:20;;;;;;;3.22;2.30;;;;;;;;;;4546982;28;20037;-57
2022/08/02 08:14:31;;;;;;;2.60;2.08;;;;;;;;;;4546337;28;20571;-57
2022/08/02 08:16:41;;;;;;;2.88;2.05;;;;;;;;;;4547345;28;20587;-57
2022/08/02 08:18:52;;;;;;;2.88;2.20;;;;;;;;;;4546349;28;20087;-57
2022/08/02 08:21:02;;;;;;;2.65;2.00;;;;;;;;;;4528393;28;20033;-57
2022/08/02 08:23:13;;;;;;;2.88;2.13;;;;;;;;;;4546785;28;20041;-59
2022/08/02 08:25:23;;;;;;;2.60;2.13;;;;;;;;;;4547751;28;20044;-57
2022/08/02 08:27:34;;;;;;;2.60;2.25;;;;;;;;;;4546116;28;20087;-57
2022/08/02 08:29:45;;;;;;;2.38;1.80;;;;;;;;;;4546501;28;20036;-57
2022/08/02 08:31:55;;;;;;;2.88;2.10;;;;;;;;;;4528454;28;20029;-57
2022/08/02 08:34:05;;;;;;;2.63;2.10;;;;;;;;;;4546208;28;20045;-57
2022/08/02 08:36:16;;;;;;;2.58;2.08;;;;;;;;;;4545483;28;20071;-56
2022/08/02 08:38:26;;;;;;;2.53;1.98;;;;;;;;;;4546599;28;20098;-57
2022/08/02 08:40:37;;;;;;;2.33;1.88;;;;;;;;;;4533785;28;20383;-57
2022/08/02 08:42:48;;;;;;;2.63;2.00;;;;;;;;;;4547145;28;20044;-57
2022/08/02 08:44:58;;;;;;;2.55;2.00;;;;;;;;;;4530688;28;20037;-57
2022/08/02 08:47:09;;;;;;;3.00;2.10;;;;;;;;;;4546375;28;20195;-57
2022/08/02 08:49:30;;;;;;;3.47;2.08;;;;;;;;;;4531690;28;20036;-57
2022/08/02 08:51:42;;;;;;;2.40;2.00;;;;;;;;;;4547500;28;20048;-57
2022/08/02 08:53:53;;;;;;;2.40;1.85;;;;;;;;;;4546347;28;20608;-58
2022/08/02 08:56:05;;;;;;;2.28;1.65;;;;;;;;;;4531686;28;21615;-58
2022/08/02 08:58:15;;;;;;;2.17;1.33;;;;;;;;;;4527699;28;20123;-58
2022/08/02 09:00:27;;;;;;;1.60;1.45;;;;;;;;;;4530078;28;20076;-58
2022/08/02 09:02:40;;;;;;;2.45;1.70;;;;;;;;;;4526642;28;20025;-58
2022/08/02 09:04:51;;;;;;;2.05;1.73;;;;;;;;;;4545274;28;20033;-58
2022/08/02 09:07:01;;;;;;;1.85;1.63;;;;;;;;;;4544868;28;20040;-58
2022/08/02 09:09:12;;;;;;;2.13;1.60;;;;;;;;;;4532154;28;20040;-58
2022/08/02 09:11:24;;;;;;;1.65;1.50;;;;;;;;;;4546494;28;20405;-58
2022/08/02 09:13:34;;;;;;;2.40;1.40;;;;;;;;;;4527451;28;20912;-58
2022/08/02 09:15:53;;;;;;;2.38;1.52;;;;;;;;;;4545959;28;20529;-57
2022/08/02 09:18:04;;;;;;;2.45;1.63;;;;;;;;;;4531892;28;20037;-58
2022/08/02 09:20:15;;;;;;;1.95;1.58;;;;;;;;;;4546691;28;20622;-58
2022/08/02 09:22:25;;;;;;;1.90;1.50;;;;;;;;;;4545342;28;20134;-58
2022/08/02 09:24:43;;;;;;;1.80;1.63;;;;;;;;;;4544629;28;20512;-58
2022/08/02 09:26:54;;;;;;;1.90;1.67;;;;;;;;;;4530683;28;20037;-58
2022/08/02 09:29:05;;;;;;;2.17;1.63;;;;;;;;;;4547047;28;20044;-58
2022/08/02 09:31:21;;;;;;;2.30;1.40;;;;;;;;;;4527839;28;20148;-58
2022/08/02 09:33:32;;;;;;;2.17;1.40;;;;;;;;;;4531940;28;20136;-62
2022/08/02 09:35:42;;;;;;;1.58;1.40;;;;;;;;;;4527504;28;20037;-58
2022/08/02 09:38:07;;;;;;;1.40;1.10;;;;;;;;;;4545047;28;20044;-58
2022/08/02 09:40:34;;;;;;;1.55;1.15;;;;;;;;;;4527761;28;20041;-58
2022/08/02 09:42:58;;;;;;;2.20;1.20;;;;;;;;;;4546386;28;20119;-58
2022/08/02 09:45:08;;;;;;;2.15;1.25;;;;;;;;;;4546295;28;21731;-58
2022/08/02 09:47:19;;;;;;;1.35;1.20;;;;;;;;;;4525731;28;20064;-58
2022/08/02 09:49:32;;;;;;;1.30;1.10;;;;;;;;;;4545590;28;20044;-58
2022/08/02 09:51:45;;;;;;;1.55;1.05;;;;;;;;;;4544138;28;20736;-58
2022/08/02 09:54:01;;;;;;;1.20;1.10;;;;;;;;;;4544968;28;20096;-57
2022/08/02 09:56:11;;;;;;;1.42;1.33;;;;;;;;;;4546250;28;21011;-58
2022/08/02 09:58:22;;;;;;;1.50;1.05;;;;;;;;;;4545759;28;20033;-57
2022/08/02 10:00:32;;;;;;;1.50;1.10;;;;;;;;;;4545313;28;20045;-59
2022/08/02 10:03:05;;;;;;;1.58;1.02;;;;;;;;;;4544247;28;20086;-58
2022/08/02 10:05:16;;;;;;;1.85;1.00;;;;;;;;;;4546211;28;20542;-58
2022/08/02 10:07:26;;;;;;;2.53;1.10;;;;;;;;;;4545446;28;20079;-58
2022/08/02 10:09:37;;;;;;;1.38;0.95;;;;;;;;;;4531272;28;20029;-58
2022/08/02 10:11:48;;;;;;;1.70;0.88;;;;;;;;;;4544576;28;21105;-58
2022/08/02 10:13:59;;;;;;;1.10;0.80;;;;;;;;;;4544204;28;20036;-58
2022/08/02 10:16:10;;;;;;;1.75;0.90;;;;;;;;;;4545033;28;20032;-57
2022/08/02 10:18:21;;;;;;;1.85;0.93;;;;;;;;;;4532709;28;20033;-58
2022/08/02 10:20:36;;;;;;;1.30;1.10;;;;;;;;;;4548885;28;20024;-58
2022/08/02 10:22:47;;;;;;;2.83;1.10;;;;;;;;;;4517006;28;20135;-58
2022/08/02 10:24:57;;;;;;;1.67;1.00;;;;;;;;;;4547009;28;20132;-58
2022/08/02 10:27:21;;;;;;;1.42;1.00;;;;;;;;;;4549447;28;20094;-58
2022/08/02 10:29:36;;;;;;;1.33;0.90;;;;;;;;;;4533085;28;20036;-58
2022/08/02 10:31:51;;;;;;;1.52;1.02;;;;;;;;;;4529972;28;20032;-58
2022/08/02 10:34:05;;;;;;;1.58;0.88;;;;;;;;;;4547800;28;20037;-58
2022/08/02 10:36:17;;;;;;;1.35;1.00;;;;;;;;;;4534056;28;20048;-58
2022/08/02 10:38:27;;;;;;;1.17;0.80;;;;;;;;;;4534701;28;20790;-57
2022/08/02 10:40:56;;;;;;;1.52;1.20;;;;;;;;;;4536194;28;20116;-58
2022/08/02 10:43:06;;;;;;;1.05;0.95;;;;;;;;;;4548587;28;20129;-58
2022/08/02 10:45:19;;;;;;;1.75;1.10;;;;;;;;;;4547086;28;20040;-58
2022/08/02 10:47:29;;;;;;;1.55;1.10;;;;;;;;;;4547455;28;20032;-61
2022/08/02 10:49:49;;;;;;;1.05;0.95;;;;;;;;;;4547965;28;20070;-57
2022/08/02 10:51:59;;;;;;;1.40;1.00;;;;;;;;;;4549597;28;20071;-58
2022/08/02 10:54:16;;;;;;;1.33;1.13;;;;;;;;;;4547686;28;20052;-57
2022/08/02 10:56:45;;;;;;;1.20;1.10;;;;;;;;;;4548879;28;20063;-58
2022/08/02 10:59:31;;;;;;;1.55;1.25;;;;;;;;;;4529695;28;20568;-58
2022/08/02 11:01:44;;;;;;;2.05;1.40;;;;;;;;;;4549808;28;20635;-58
2022/08/02 11:03:59;;;;;;;1.80;1.30;;;;;;;;;;4549255;28;20135;-58
2022/08/02 11:06:11;;;;;;;1.30;1.20;;;;;;;;;;4534959;28;20034;-59
2022/08/02 11:08:23;;;;;;;1.83;1.20;;;;;;;;;;4548684;28;20029;-58
2022/08/02 11:10:37;;;;;;;1.25;1.15;;;;;;;;;;4548233;28;20114;-59
2022/08/02 11:12:58;;;;;;;1.30;1.20;;;;;;;;;;4549553;28;20606;-60
2022/08/02 11:15:08;;;;;;;1.52;1.30;;;;;;;;;;4547190;28;20028;-59
2022/08/02 11:17:19;;;;;;;2.05;1.30;;;;;;;;;;4528422;28;20029;-62
2022/08/02 11:19:30;;;;;;;1.40;1.30;;;;;;;;;;4534021;28;20069;-58
2022/08/02 11:21:40;;;;;;;1.50;1.40;;;;;;;;;;4546734;28;20025;-58
2022/08/02 11:23:51;;;;;;;2.00;1.27;;;;;;;;;;4549260;28;20037;-58
2022/08/02 11:26:28;;;;;;;1.65;1.45;;;;;;;;;;4547631;28;20119;-58
2022/08/02 11:28:38;;;;;;;1.33;1.23;;;;;;;;;;4541068;28;20050;-58
2022/08/02 11:30:55;;;;;;;1.30;1.20;;;;;;;;;;4547446;28;20025;-59
2022/08/02 11:33:06;;;;;;;1.65;1.40;;;;;;;;;;4548528;28;20041;-58
2022/08/02 11:35:16;;;;;;;2.00;1.40;;;;;;;;;;4547643;28;20032;-58
2022/08/02 11:37:39;;;;;;;1.92;1.38;;;;;;;;;;4547509;28;20025;-58
2022/08/02 11:39:51;;;;;;;2.03;1.35;;;;;;;;;;4548029;28;20560;-57
2022/08/02 11:42:02;;;;;;;1.30;1.20;;;;;;;;;;4532721;28;20060;-58
2022/08/02 11:44:12;;;;;;;1.75;1.55;;;;;;;;;;4546478;28;20140;-58
2022/08/02 11:46:22;;;;;;;1.35;1.25;;;;;;;;;;4547966;28;20103;-58
2022/08/02 11:48:38;;;;;;;1.48;1.38;;;;;;;;;;4531285;28;20124;-58
2022/08/02 11:51:02;;;;;;;1.42;1.33;;;;;;;;;;4532491;28;20549;-58
2022/08/02 11:53:14;;;;;;;1.10;0.80;;;;;;;;;;4549209;28;20041;-58
2022/08/02 11:55:29;;;;;;;1.52;1.30;;;;;;;;;;4548077;28;21117;-58
2022/08/02 11:57:40;;;;;;;1.45;1.30;;;;;;;;;;4548327;28;20083;-59
2022/08/02 11:59:52;;;;;;;0.90;0.90;;;;;;;;;;4547599;28;20035;-58
2022/08/02 12:02:05;;;;;;;0.95;0.88;;;;;;;;;;4537157;28;20102;-58
2022/08/02 12:04:17;;;;;;;1.30;1.20;;;;;;;;;;4547520;28;20106;-58
2022/08/02 12:06:29;;;;;;;1.38;1.27;;;;;;;;;;4532324;28;20733;-58
2022/08/02 12:08:39;;;;;;;1.20;1.10;;;;;;;;;;4531534;28;20040;-58
2022/08/02 12:10:50;;;;;;;1.30;1.20;;;;;;;;;;4538816;28;20048;-58
2022/08/02 12:13:01;;;;;;;1.20;1.10;;;;;;;;;;4547013;28;20041;-58
2022/08/02 12:15:12;;;;;;;1.38;1.10;;;;;;;;;;4547736;28;20587;-57
2022/08/02 12:19:52;;;;;;;0.98;0.80;;;;;;;;;;4546281;28;20041;-57
2022/08/02 12:22:06;;;;;;;0.70;0.70;;;;;;;;;;4547635;28;20032;-57
2022/08/02 12:24:27;;;;;;;1.00;0.93;;;;;;;;;;4536958;28;20037;-57
2022/08/02 12:26:45;;;;;;;1.08;1.00;;;;;;;;;;4546030;28;20029;-57
2022/08/02 12:28:56;;;;;;;1.00;0.80;;;;;;;;;;4547596;28;20033;-58
2022/08/02 12:31:16;;;;;;;1.13;0.70;;;;;;;;;;4539079;28;20087;-58
2022/08/02 12:33:44;;;;;;;0.77;0.77;;;;;;;;;;4546934;28;20043;-57
2022/08/02 12:35:55;;;;;;;0.80;0.80;;;;;;;;;;4543969;28;20777;-58
2022/08/02 12:38:09;;;;;;;0.80;0.80;;;;;;;;;;4547064;28;20045;-58
2022/08/02 12:40:23;;;;;;;0.80;0.80;;;;;;;;;;4546210;28;20068;-57
2022/08/02 12:42:48;;;;;;;0.95;0.95;;;;;;;;;;4546286;28;20212;-57
2022/08/02 12:44:59;;;;;;;0.75;0.75;;;;;;;;;;4536973;28;20040;-56
2022/08/02 12:47:09;;;;;;;0.63;0.63;;;;;;;;;;4546634;28;20044;-58
2022/08/02 12:49:20;;;;;;;1.13;0.90;;;;;;;;;;4546124;28;20618;-56
2022/08/02 12:51:37;;;;;;;0.85;0.80;;;;;;;;;;4546131;28;20041;-57
2022/08/02 12:53:47;;;;;;;0.85;0.85;;;;;;;;;;4548312;28;20525;-58
2022/08/02 12:56:00;;;;;;;0.80;0.80;;;;;;;;;;4532963;28;20045;-57
2022/08/02 12:58:10;;;;;;;0.80;0.77;;;;;;;;;;4532382;28;20037;-57
2022/08/02 13:00:32;;;;;;;0.70;0.70;;;;;;;;;;4547501;28;20032;-57
2022/08/02 13:02:42;;;;;;;1.00;0.80;;;;;;;;;;4546769;28;20043;-57
2022/08/02 13:04:53;;;;;;;0.80;0.80;;;;;;;;;;4546003;28;20610;-57
2022/08/02 13:07:04;;;;;;;0.70;0.70;;;;;;;;;;4545627;28;20140;-57
2022/08/02 13:09:15;;;;;;;0.60;0.60;;;;;;;;;;4546945;28;20372;-57
2022/08/02 13:11:26;;;;;;;0.95;0.95;;;;;;;;;;4532560;28;20037;-57
2022/08/02 13:13:37;;;;;;;0.80;0.80;;;;;;;;;;4547514;28;20021;-57
2022/08/02 13:15:47;;;;;;;0.85;0.85;;;;;;;;;;4528089;28;20065;-57
2022/08/02 13:18:00;;;;;;;0.90;0.90;;;;;;;;;;4545711;28;20087;-58
2022/08/02 13:20:10;;;;;;;0.75;0.75;;;;;;;;;;4546625;28;20033;-57
2022/08/02 13:22:21;;;;;;;1.83;0.90;;;;;;;;;;4546334;28;20037;-57